createdAt,value
2019-02-12T00:03:04.791Z,49.90
2019-02-12T00:16:28.803Z,49.90
2019-02-12T00:43:26.860Z,49.90
2019-02-12T00:56:34.001Z,49.90
2019-02-12T01:09:41.143Z,49.70
2019-02-12T01:22:48.435Z,49.90
2019-02-12T01:35:55.581Z,50.00
2019-02-12T01:49:19.356Z,49.90
2019-02-12T02:02:42.174Z,49.90
2019-02-12T02:29:06.666Z,50.00
2019-02-12T02:42:13.814Z,50.00
2019-02-12T02:55:21.058Z,50.00
2019-02-12T03:08:28.217Z,50.00
2019-02-12T03:21:35.498Z,50.00
2019-02-12T03:47:45.217Z,50.70
2019-02-12T04:00:52.366Z,49.90
2019-02-12T04:13:59.503Z,49.90
2019-02-12T04:27:06.639Z,49.90
2019-02-12T04:40:13.907Z,49.90
2019-02-12T04:53:21.062Z,50.00
2019-02-12T05:19:46.703Z,50.00
2019-02-12T05:32:54.031Z,49.90
2019-02-12T05:46:01.237Z,50.00
2019-02-12T05:59:08.440Z,50.10
2019-02-12T06:12:15.629Z,49.90
2019-02-12T06:25:22.943Z,50.00
2019-02-12T06:38:46.475Z,50.00
2019-02-12T06:52:09.234Z,49.60
2019-02-12T07:05:32.060Z,49.10
2019-02-12T07:18:54.805Z,49.30
2019-02-12T07:32:17.629Z,49.40
2019-02-12T07:45:40.478Z,49.90
2019-02-12T07:59:03.301Z,50.20
2019-02-12T08:25:27.797Z,49.60
2019-02-12T08:38:34.980Z,49.50
2019-02-12T08:51:42.166Z,49.30
2019-02-12T09:04:49.371Z,49.70
2019-02-12T09:17:56.689Z,50.70
2019-02-12T09:31:03.962Z,50.40
2019-02-12T09:44:27.561Z,50.00
2019-02-12T09:57:50.451Z,50.00
2019-02-12T10:37:21.347Z,50.60
2019-02-12T10:50:28.669Z,50.90
2019-02-12T11:03:35.993Z,50.00
2019-02-12T11:16:43.280Z,49.90
2019-02-12T11:29:50.483Z,49.60
2019-02-12T11:43:14.581Z,49.60
2019-02-12T11:56:37.503Z,49.60
2019-02-12T12:10:00.380Z,49.50
2019-02-12T12:23:23.212Z,50.40
2019-02-12T12:36:45.832Z,50.40
2019-02-12T12:50:08.622Z,50.40
2019-02-12T13:03:31.507Z,50.10
2019-02-12T13:16:54.303Z,49.50
2019-02-12T13:30:17.229Z,49.60
2019-02-12T13:43:39.948Z,49.50
2019-02-12T13:57:02.874Z,49.50
2019-02-12T14:23:27.494Z,55.10
2019-02-12T14:36:34.570Z,56.30
2019-02-12T14:49:41.724Z,56.30
2019-02-12T15:02:48.910Z,54.70
2019-02-12T15:15:56.065Z,54.00
2019-02-12T15:29:03.223Z,53.40
2019-02-12T15:42:26.921Z,53.00
2019-02-12T15:55:51.120Z,52.80
2019-02-12T16:09:13.726Z,52.50
2019-02-12T16:22:35.393Z,52.20
2019-02-12T16:35:58.217Z,51.80
2019-02-12T16:49:21.049Z,51.70
2019-02-12T17:15:45.526Z,51.50
2019-02-12T17:28:52.739Z,51.30
2019-02-12T17:42:00.015Z,42.00
2019-02-12T17:55:07.201Z,39.90
2019-02-12T18:08:14.448Z,41.30
2019-02-12T18:21:21.682Z,42.90
2019-02-12T18:34:45.245Z,45.10
2019-02-12T18:48:08.165Z,45.70
2019-02-12T19:01:30.998Z,46.10
2019-02-12T19:27:55.507Z,47.10
2019-02-12T19:41:02.827Z,48.10
2019-02-12T19:54:10.121Z,49.00
2019-02-12T20:07:17.349Z,47.10
2019-02-12T20:20:25.417Z,50.20
2019-02-12T20:33:56.767Z,51.50
2019-02-12T20:47:11.489Z,52.00
2019-02-12T21:13:36.051Z,52.00
2019-02-12T21:39:48.851Z,53.40
2019-02-12T21:52:56.071Z,46.50
2019-02-12T22:06:03.562Z,49.10
2019-02-12T22:19:10.884Z,49.50
2019-02-12T22:45:21.073Z,50.70
2019-02-12T22:58:28.358Z,51.00
2019-02-12T23:11:35.538Z,51.00
2019-02-12T23:24:42.796Z,51.10
2019-02-12T23:37:49.915Z,51.00
2019-02-12T23:50:57.053Z,50.90
